Latest Weather Observations for Badgerys Creek

IDN60801

Issued at 8:02 pm EST Sunday 2 August 2015 (issued every 30 minutes, with the page automatically refreshed every 10 minutes)

About weather observations | Map of weather stations | Latest weather observations for NSW | Other Formats
Station Details ID: 067108 Name: BADGERYS CREEK AWS Lat: -33.90 Lon: 150.73 Height: 81.2 m
Data from the previous 72 hours. | See also: Recent months at Badgerys Creek
Date/Time
EST
Temp
°C
App
Temp
°C
Dew
Point
Rel
Hum
%
Delta-T
°C
Wind Press
QNH
hPa
Press
MSL
hPa
Rain
since 9 am
mm
Dir
 
Spd
km/h
Gust
km/h
Spd
kts
Gust
kts
02/08:00pm 15.6 13.1 8.4 62 3.7 NNW 11 17 6 9 - - 0.0
02/07:30pm 17.0 13.4 8.2 56 4.5 WNW 17 26 9 14 - - 0.0
02/07:00pm 17.4 14.5 8.0 54 4.8 NW 13 26 7 14 - - 0.0
02/06:30pm 18.3 14.5 7.4 49 5.5 WSW 17 26 9 14 - - 0.0
02/06:00pm 17.3 14.2 7.4 52 5.0 WSW 13 24 7 13 - - 0.0
02/05:30pm 18.8 15.6 6.9 46 6.0 W 13 17 7 9 - - 0.0
02/05:00pm 19.6 15.7 7.0 44 6.4 WNW 17 22 9 12 - - 0.0
02/04:30pm 21.5 17.2 7.0 39 7.4 WNW 19 24 10 13 - - 0.0
02/04:00pm 22.5 17.9 6.3 35 8.3 WNW 20 33 11 18 - - 0.0
02/03:30pm 23.3 18.4 7.0 35 8.5 WNW 22 35 12 19 - - 0.0
02/03:00pm 23.8 18.9 7.0 34 8.8 NW 22 32 12 17 - - 0.0
02/02:30pm 24.1 18.9 7.3 34 8.8 NNW 24 39 13 21 - - 0.0
02/02:13pm 23.3 17.3 7.0 35 8.5 NW 28 48 15 26 - - 0.0
02/02:00pm 22.3 19.5 8.4 41 7.4 NNE 13 28 7 15 - - 0.0
02/01:30pm 21.6 20.0 8.1 42 7.1 SW 6 17 3 9 - - 0.0
02/01:00pm 20.1 18.7 9.4 50 5.7 NE 7 11 4 6 - - 0.0
02/12:30pm 18.1 16.4 8.4 53 5.0 SW 7 11 4 6 - - 0.0
02/12:00pm 18.0 16.5 8.3 53 5.0 NNW 6 7 3 4 - - 0.0
02/11:30am 18.3 16.5 8.0 51 5.3 N 7 13 4 7 - - 0.0
02/11:00am 17.8 16.1 8.4 54 4.8 N 7 11 4 6 - - 0.0
02/10:30am 15.9 14.1 7.1 56 4.4 N 6 11 3 6 - - 0.0
02/10:00am 15.3 14.3 9.0 66 3.2 WSW 4 6 2 3 - - 0.0
02/09:30am 13.0 12.9 9.3 78 1.9 CALM 0 0 0 0 - - 0.0
02/09:00am 12.3 11.7 9.0 80 1.7 SW 2 4 1 2 - - 0.0
02/08:30am 8.9 7.3 8.8 99 0.0 SW 7 13 4 7 - - 0.0
02/08:00am 7.0 5.0 7.0 100 0.0 NNW 7 9 4 5 - - 0.0
02/07:30am 6.2 4.0 6.2 100 0.0 NNW 7 9 4 5 - - 0.0
02/07:00am 5.3 2.9 5.3 100 0.0 NNW 7 9 4 5 - - 0.0
02/06:30am 5.3 3.1 5.3 100 0.0 NNW 6 7 3 4 - - 0.0
02/06:00am 5.7 4.3 5.7 100 0.0 NNW 2 6 1 3 - - 0.0
02/05:30am 6.5 5.7 6.4 99 0.0 CALM 0 0 0 0 - - 0.0
02/05:00am 6.7 4.8 6.6 99 0.0 NNW 6 7 3 4 - - 0.0
02/04:30am 6.8 4.9 6.7 99 0.0 NNW 6 7 3 4 - - 0.0
02/04:00am 7.9 7.1 6.7 92 0.6 CALM 0 2 0 1 - - 0.0
02/03:30am 7.8 6.5 7.5 98 0.1 NNW 4 6 2 3 - - 0.0
02/03:00am 7.6 6.0 6.5 93 0.5 NNW 4 6 2 3 - - 0.0
02/02:30am 8.4 7.7 6.9 90 0.7 CALM 0 0 0 0 - - 0.0
02/02:00am 8.3 7.2 6.9 91 0.7 NNW 2 4 1 2 - - 0.0
02/01:30am 7.4 5.1 5.9 90 0.7 NNW 7 9 4 5 - - 0.0
02/01:00am 8.3 6.2 5.8 84 1.1 NNW 6 6 3 3 - - 0.0
02/12:30am 9.3 7.2 5.9 79 1.6 NNW 6 6 3 3 - - 0.0
02/12:00am 9.7 8.0 6.1 78 1.7 NNW 4 6 2 3 - - 0.0
 
Date/Time
EST
Temp
°C
App
Temp
°C
Dew
Point
Rel
Hum
%
Delta-T
°C
Wind Press
QNH
hPa
Press
MSL
hPa
Rain
since 9 am
mm
Dir
 
Spd
km/h
Gust
km/h
Spd
kts
Gust
kts
01/11:30pm 10.8 8.4 5.1 68 2.6 NNW 7 11 4 6 - - 0.0
01/11:00pm 11.7 10.7 5.6 66 2.8 CALM 0 0 0 0 - - 0.0
01/10:30pm 11.3 9.8 6.6 73 2.2 NNW 4 6 2 3 - - 0.0
01/10:00pm 12.8 10.8 6.4 65 3.1 NNW 6 6 3 3 - - 0.0
01/09:30pm 13.3 11.8 6.6 64 3.2 NNW 4 6 2 3 - - 0.0
01/09:00pm 15.5 13.1 5.4 51 4.8 NNW 7 9 4 5 - - 0.0
01/08:30pm 15.8 13.4 5.1 49 5.1 NNW 7 9 4 5 - - 0.0
01/08:00pm 15.2 12.5 5.4 52 4.7 N 9 13 5 7 - - 0.0
01/07:30pm 16.2 13.4 5.2 48 5.3 N 9 11 5 6 - - 0.0
01/07:00pm 16.6 14.4 5.3 47 5.4 N 6 7 3 4 - - 0.0
01/06:30pm 16.5 13.1 6.1 50 5.1 N 13 15 7 8 - - 0.0
01/06:00pm 16.6 12.8 5.6 48 5.3 N 15 19 8 10 - - 0.0
01/05:30pm 16.2 12.6 5.2 48 5.3 N 13 15 7 8 - - 0.0
01/05:00pm 17.2 13.3 5.2 45 5.8 N 15 19 8 10 - - 0.0
01/04:30pm 18.6 14.6 4.8 40 6.7 N 15 20 8 11 - - 0.0
01/04:00pm 18.9 14.4 4.3 38 7.0 N 17 24 9 13 - - 0.0
01/03:30pm 19.7 14.4 3.0 33 7.8 NNW 20 28 11 15 - - 0.0
01/03:00pm 21.0 16.1 4.1 33 8.2 NW 19 28 10 15 - - 0.0
01/02:30pm 21.3 16.6 5.2 35 8.0 NW 19 28 10 15 - - 0.0
01/02:00pm 19.9 14.9 4.4 36 7.5 NNW 20 32 11 17 - - 0.0
01/01:30pm 20.2 15.3 3.9 34 7.8 NW 19 28 10 15 - - 0.0
01/01:00pm 19.6 14.8 4.9 38 7.2 NW 19 26 10 14 - - 0.0
01/12:30pm 20.0 15.0 6.4 41 6.8 NW 22 32 12 17 - - 0.0
01/12:00pm 18.6 16.1 8.0 50 5.4 N 11 15 6 8 - - 0.0
01/11:30am 16.1 14.7 8.8 62 3.8 NNE 6 9 3 5 - - 0.0
01/11:00am 14.3 12.0 7.6 64 3.3 NNE 9 13 5 7 - - 0.0
01/10:30am 14.5 12.9 8.2 66 3.2 N 6 7 3 4 - - 0.0
01/10:00am 12.4 11.3 8.3 76 2.0 NNW 4 7 2 4 - - 0.0
01/09:30am 10.6 9.9 8.4 86 1.1 SSE 2 6 1 3 - - 0.0
01/09:00am 7.9 6.7 7.9 100 0.0 SSE 4 6 2 3 - - 0.0
01/08:30am 6.0 4.3 6.0 100 0.0 S 4 6 2 3 - - 0.0
01/08:00am 5.1 3.6 5.1 100 0.0 SW 2 9 1 5 - - 0.0
01/07:30am 4.0 2.7 4.0 100 0.0 CALM 0 0 0 0 - - 0.0
01/07:00am 3.8 2.1 3.8 100 0.0 WSW 2 6 1 3 - - 0.0
01/06:30am 3.6 1.4 3.6 100 0.0 WSW 4 6 2 3 - - 0.0
01/06:00am 3.8 1.7 3.8 100 0.0 WSW 4 7 2 4 - - 0.0
01/05:30am 3.4 0.6 3.4 100 0.0 WSW 7 11 4 6 - - 0.0
01/05:00am 2.0 0.3 2.0 100 0.0 CALM 0 0 0 0 - - 0.0
01/04:30am 2.8 1.3 2.8 100 0.0 CALM 0 0 0 0 - - 0.0
01/04:00am 3.6 1.8 3.6 100 0.0 NW 2 6 1 3 - - 0.0
01/03:30am 3.3 1.5 3.3 100 0.0 NW 2 6 1 3 - - 0.0
01/03:00am 3.2 0.6 3.2 100 0.0 NW 6 9 3 5 - - 0.0
01/02:30am 3.3 0.5 3.3 100 0.0 NW 7 9 4 5 - - 0.0
01/02:00am 3.7 2.3 3.7 100 0.0 CALM 0 0 0 0 - - 0.0
01/01:30am 4.5 2.5 4.5 100 0.0 NW 4 4 2 2 - - 0.0
01/01:00am 5.7 3.4 5.7 100 0.0 NNW 7 9 4 5 - - 0.0
01/12:30am 6.9 6.2 6.8 99 0.0 CALM 0 0 0 0 - - 0.0
01/12:00am 6.9 5.7 6.5 97 0.2 W 2 4 1 2 - - 0.0
 
Date/Time
EST
Temp
°C
App
Temp
°C
Dew
Point
Rel
Hum
%
Delta-T
°C
Wind Press
QNH
hPa
Press
MSL
hPa
Rain
since 9 am
mm
Dir
 
Spd
km/h
Gust
km/h
Spd
kts
Gust
kts
31/11:30pm 7.2 5.2 6.9 98 0.1 WSW 7 9 4 5 - - 0.0
31/11:00pm 7.7 5.6 6.5 92 0.6 WSW 7 7 4 4 - - 0.0
31/10:30pm 8.5 6.7 7.0 90 0.7 WSW 6 7 3 4 - - 0.0
31/10:00pm 8.8 7.0 7.1 89 0.8 WSW 6 7 3 4 - - 0.0
31/09:30pm 8.9 6.9 7.2 89 0.8 SW 7 9 4 5 - - 0.0
31/09:00pm 9.0 6.5 6.4 84 1.2 WSW 9 11 5 6 - - 0.0
31/08:30pm 10.1 8.0 6.6 79 1.6 WSW 7 11 4 6 - - 0.0
31/08:00pm 10.2 8.2 6.9 80 1.6 SW 7 9 4 5 - - 0.0
31/07:30pm 11.3 9.5 7.0 75 2.1 SW 6 7 3 4 - - 0.0
31/07:00pm 11.4 9.4 6.3 71 2.4 SSE 6 6 3 3 - - 0.0
31/06:30pm 12.3 11.2 5.2 62 3.3 CALM 0 0 0 0 - - 0.0
31/06:00pm 13.1 12.1 5.8 61 3.5 CALM 0 0 0 0 - - 0.0
31/05:30pm 15.8 13.9 4.8 48 5.2 NE 4 4 2 2 - - 0.0
31/05:00pm 16.4 14.3 5.7 49 5.2 NE 6 7 3 4 - - 0.0
31/04:30pm 17.6 15.4 5.5 45 5.9 ENE 6 9 3 5 - - 0.0
31/04:00pm 18.0 16.1 6.8 48 5.6 NE 6 9 3 5 - - 0.0
31/03:30pm 18.5 16.0 4.7 40 6.6 NNE 7 13 4 7 - - 0.0
31/03:00pm 19.3 17.2 5.7 41 6.7 NNE 6 11 3 6 - - 0.0
31/02:30pm 19.0 16.7 4.7 39 6.9 NNE 6 11 3 6 - - 0.0
31/02:00pm 19.2 17.3 4.9 39 6.9 NNE 4 7 2 4 - - 0.0
31/01:30pm 19.0 17.3 5.8 42 6.5 W 4 13 2 7 - - 0.0
31/01:00pm 17.8 14.9 4.4 41 6.4 SW 9 13 5 7 - - 0.0
31/12:30pm 17.6 14.5 3.5 39 6.6 WSW 9 19 5 10 - - 0.0
31/12:00pm 18.3 16.5 5.5 43 6.3 NW 4 7 2 4 - - 0.0
31/11:30am 17.0 14.2 3.3 40 6.3 W 7 17 4 9 - - 0.0
31/11:00am 16.8 14.3 4.5 44 5.8 NW 7 11 4 6 - - 0.0
31/10:30am 16.3 14.6 7.5 56 4.4 WNW 6 7 3 4 - - 0.0
31/10:00am 14.9 13.0 6.7 58 4.0 NW 6 9 3 5 - - 0.0
31/09:30am 12.8 10.7 5.7 62 3.3 WNW 6 9 3 5 - - 0.0
31/09:00am 11.5 9.9 6.2 70 2.5 W 4 7 2 4 - - 0.0
31/08:30am 9.6 8.0 6.3 80 1.5 NW 4 6 2 3 - - 0.0
31/08:00am 6.6 4.9 5.9 95 0.3 NW 4 6 2 3 - - 0.0
31/07:30am 5.4 3.6 3.7 89 0.7 NW 2 4 1 2 - - 0.0
31/07:00am 5.1 3.2 3.1 87 0.8 WSW 2 6 1 3 - - 0.0
31/06:30am 5.8 3.3 3.6 86 0.9 WSW 6 7 3 4 - - 0.0
31/06:00am 5.6 2.9 3.9 89 0.7 N 7 9 4 5 - - 0.0
31/05:30am 6.5 4.3 3.5 81 1.3 N 4 6 2 3 - - 0.0
31/05:00am 8.3 6.8 3.0 69 2.3 CALM 0 0 0 0 - - 0.0
31/04:30am 9.4 6.5 2.5 62 2.9 N 7 9 4 5 - - 0.0
31/04:00am 10.9 7.4 3.5 60 3.3 NNW 11 13 6 7 - - 0.0
31/03:30am 11.5 8.7 3.3 57 3.6 N 7 9 4 5 - - 0.0
31/03:00am 11.0 7.8 3.3 59 3.4 N 9 9 5 5 - - 0.0
31/02:30am 12.4 9.5 2.8 52 4.2 NNW 7 13 4 7 - - 0.0
31/02:00am 12.0 8.8 3.0 54 4.0 NNW 9 13 5 7 - - 0.0
31/01:30am 12.4 8.2 3.6 55 3.9 NW 15 19 8 10 - - 0.0
31/01:00am 13.0 8.0 3.7 53 4.2 WNW 19 28 10 15 - - 0.0
31/12:30am 12.7 8.5 3.6 54 4.1 W 15 22 8 12 - - 0.0
31/12:00am 11.8 8.7 3.8 58 3.6 W 9 11 5 6 - - 0.0
 
Date/Time
EST
Temp
°C
App
Temp
°C
Dew
Point
Rel
Hum
%
Delta-T
°C
Wind Press
QNH
hPa
Press
MSL
hPa
Rain
since 9 am
mm
Dir
 
Spd
km/h
Gust
km/h
Spd
kts
Gust
kts
30/11:30pm 12.3 8.5 4.0 57 3.7 WNW 13 15 7 8 - - 0.0
30/11:00pm 12.6 9.9 3.8 55 4.0 NW 7 13 4 7 - - 0.0
30/10:30pm 13.1 9.6 3.5 52 4.3 NW 11 17 6 9 - - 0.0
30/10:00pm 13.6 9.3 3.4 50 4.6 NW 15 20 8 11 - - 0.0
30/09:30pm 13.3 9.5 3.7 52 4.3 NNW 13 17 7 9 - - 0.0
30/09:00pm 12.8 9.0 4.0 55 4.0 NNW 13 17 7 9 - - 0.0
30/08:30pm 13.2 10.3 2.7 49 4.6 NNW 7 9 4 5 - - 0.0

Other Formats:

Comma delimited format used in spreadsheet applications
http://www.bom.gov.au/fwo/IDN60801/IDN60801.94752.axf

JavaScript Object Notation format (JSON) in row-major order
http://www.bom.gov.au/fwo/IDN60801/IDN60801.94752.json